createdAt,value
2018-12-05T00:00:06.707Z,6.30
2018-12-05T00:02:34.290Z,6.30
2018-12-05T00:05:01.847Z,6.30
2018-12-05T00:07:29.435Z,6.20
2018-12-05T00:09:56.994Z,6.30
2018-12-05T00:12:24.700Z,6.20
2018-12-05T00:14:52.271Z,6.30
2018-12-05T00:17:19.851Z,6.40
2018-12-05T00:19:47.419Z,6.40
2018-12-05T00:22:15.014Z,6.40
2018-12-05T00:24:42.581Z,6.30
2018-12-05T00:27:10.171Z,6.30
2018-12-05T00:29:37.739Z,6.10
2018-12-05T00:32:05.476Z,6.10
2018-12-05T00:34:33.046Z,6.10
2018-12-05T00:37:00.626Z,6.10
2018-12-05T00:39:28.210Z,6.10
2018-12-05T00:41:55.770Z,6.10
2018-12-05T00:44:23.355Z,6.10
2018-12-05T00:46:50.906Z,6.00
2018-12-05T00:49:18.512Z,6.00
2018-12-05T00:51:46.071Z,6.00
2018-12-05T00:54:13.659Z,6.00
2018-12-05T00:56:41.226Z,6.10
2018-12-05T00:59:08.822Z,6.10
2018-12-05T01:01:36.398Z,6.10
2018-12-05T01:06:44.902Z,6.10
2018-12-05T01:09:15.531Z,6.20
2018-12-05T01:11:43.089Z,6.20
2018-12-05T01:14:10.679Z,6.10
2018-12-05T01:16:38.240Z,6.10
2018-12-05T01:19:05.835Z,6.10
2018-12-05T01:21:33.407Z,6.00
2018-12-05T01:24:00.998Z,6.00
2018-12-05T01:26:28.555Z,6.00
2018-12-05T01:28:56.142Z,6.10
2018-12-05T01:31:23.694Z,6.10
2018-12-05T01:33:51.322Z,6.20
2018-12-05T01:36:18.891Z,6.20
2018-12-05T01:38:46.475Z,6.20
2018-12-05T01:41:14.035Z,6.20
2018-12-05T01:43:47.497Z,6.30
2018-12-05T01:46:15.404Z,6.30
2018-12-05T01:48:42.963Z,6.20
2018-12-05T01:51:10.580Z,6.20
2018-12-05T01:53:38.246Z,6.20
2018-12-05T01:56:05.912Z,6.30
2018-12-05T01:58:33.485Z,6.30
2018-12-05T02:01:01.170Z,6.20
2018-12-05T02:03:28.733Z,6.30
2018-12-05T02:05:56.320Z,6.30
2018-12-05T02:08:23.890Z,6.40
2018-12-05T02:10:51.475Z,6.40
2018-12-05T02:13:19.129Z,6.40
2018-12-05T02:15:46.840Z,6.40
2018-12-05T02:18:14.419Z,6.40
2018-12-05T02:20:42.138Z,6.30
2018-12-05T02:23:09.700Z,6.30
2018-12-05T02:25:37.416Z,6.30
2018-12-05T02:28:04.999Z,6.30
2018-12-05T02:30:32.595Z,6.30
2018-12-05T02:33:00.150Z,6.20
2018-12-05T02:35:27.731Z,6.20
2018-12-05T02:37:55.291Z,6.20
2018-12-05T02:40:22.876Z,6.30
2018-12-05T02:42:50.434Z,6.30
2018-12-05T02:45:18.032Z,6.20
2018-12-05T02:47:45.620Z,6.30
2018-12-05T02:50:13.194Z,6.10
2018-12-05T02:52:40.784Z,6.10
2018-12-05T02:55:08.406Z,6.10
2018-12-05T02:57:35.975Z,6.20
2018-12-05T03:00:05.300Z,6.20
2018-12-05T03:02:32.896Z,6.10
2018-12-05T03:05:00.472Z,6.00
2018-12-05T03:07:28.078Z,6.10
2018-12-05T03:09:56.878Z,6.10
2018-12-05T03:12:24.471Z,6.20
2018-12-05T03:14:52.036Z,6.20
2018-12-05T03:17:19.657Z,6.20
2018-12-05T03:19:47.222Z,6.10
2018-12-05T03:22:14.812Z,6.20
2018-12-05T03:24:42.381Z,6.10
2018-12-05T03:27:09.967Z,6.10
2018-12-05T03:29:37.532Z,6.10
2018-12-05T03:32:05.119Z,6.20
2018-12-05T03:34:32.684Z,6.20
2018-12-05T03:37:00.282Z,6.20
2018-12-05T03:39:27.851Z,6.20
2018-12-05T03:41:55.459Z,6.10
2018-12-05T03:44:23.027Z,6.00
2018-12-05T03:46:50.594Z,5.90
2018-12-05T03:49:18.200Z,5.90
2018-12-05T03:51:45.759Z,5.80
2018-12-05T03:54:13.471Z,5.80
2018-12-05T03:56:41.043Z,5.70
2018-12-05T03:59:08.636Z,5.70
2018-12-05T04:01:36.195Z,5.70
2018-12-05T04:04:03.917Z,5.80
2018-12-05T04:06:31.488Z,5.80
2018-12-05T04:08:59.079Z,5.90
2018-12-05T04:11:26.653Z,5.90
2018-12-05T04:13:54.259Z,5.80
2018-12-05T04:16:21.818Z,5.70
2018-12-05T04:18:49.410Z,5.80
2018-12-05T04:21:16.972Z,5.80
2018-12-05T04:23:44.559Z,5.80
2018-12-05T04:26:15.408Z,5.80
2018-12-05T04:28:43.007Z,5.90
2018-12-05T04:31:10.595Z,5.70
2018-12-05T04:33:38.159Z,5.70
2018-12-05T04:36:05.743Z,5.80
2018-12-05T04:38:33.304Z,5.70
2018-12-05T04:41:00.900Z,5.70
2018-12-05T04:43:28.454Z,5.70
2018-12-05T04:45:56.045Z,5.60
2018-12-05T04:48:23.607Z,5.80
2018-12-05T04:50:51.191Z,5.70
2018-12-05T04:53:18.767Z,5.70
2018-12-05T04:55:46.351Z,5.80
2018-12-05T04:58:13.918Z,5.80
2018-12-05T05:00:41.508Z,5.80
2018-12-05T05:03:09.188Z,5.70
2018-12-05T05:05:36.779Z,5.80
2018-12-05T05:08:07.795Z,5.90
2018-12-05T05:10:35.383Z,5.80
2018-12-05T05:13:02.947Z,5.80
2018-12-05T05:15:30.539Z,5.90
2018-12-05T05:17:58.114Z,5.90
2018-12-05T05:20:25.700Z,5.90
2018-12-05T05:22:53.282Z,5.90
2018-12-05T05:25:21.782Z,5.90
2018-12-05T05:27:49.567Z,5.90
2018-12-05T05:30:17.132Z,5.80
2018-12-05T05:32:47.788Z,5.90
2018-12-05T05:35:16.307Z,5.90
2018-12-05T05:37:43.888Z,5.90
2018-12-05T05:40:11.451Z,6.00
2018-12-05T05:42:39.072Z,5.90
2018-12-05T05:45:06.662Z,5.80
2018-12-05T05:47:34.254Z,5.70
2018-12-05T05:50:01.821Z,5.70
2018-12-05T05:52:29.407Z,5.60
2018-12-05T05:54:56.963Z,5.60
2018-12-05T05:57:24.552Z,5.60
2018-12-05T05:59:52.119Z,5.80
2018-12-05T06:02:20.383Z,5.70
2018-12-05T06:04:48.162Z,5.70
2018-12-05T06:07:15.751Z,5.70
2018-12-05T06:09:43.419Z,5.70
2018-12-05T06:12:10.991Z,5.80
2018-12-05T06:14:38.582Z,5.70
2018-12-05T06:17:06.152Z,5.80
2018-12-05T06:19:33.748Z,5.90
2018-12-05T06:22:01.315Z,5.80
2018-12-05T06:24:30.831Z,5.80
2018-12-05T06:26:58.637Z,5.80
2018-12-05T06:29:26.226Z,5.80
2018-12-05T06:31:53.795Z,5.80
2018-12-05T06:34:21.387Z,5.80
2018-12-05T06:36:48.952Z,5.90
2018-12-05T06:39:16.551Z,5.90
2018-12-05T06:41:44.115Z,6.10
2018-12-05T06:44:11.718Z,6.20
2018-12-05T06:46:39.291Z,6.10
2018-12-05T06:49:06.891Z,6.10
2018-12-05T06:51:34.484Z,6.00
2018-12-05T06:54:02.048Z,5.90
2018-12-05T06:56:29.645Z,6.00
2018-12-05T06:58:57.211Z,6.00
2018-12-05T07:01:24.803Z,6.10
2018-12-05T07:03:52.370Z,6.00
2018-12-05T07:06:19.963Z,5.90
2018-12-05T07:08:47.523Z,6.10
2018-12-05T07:11:15.111Z,6.10
2018-12-05T07:13:42.680Z,6.00
2018-12-05T07:16:10.275Z,5.90
2018-12-05T07:18:37.853Z,5.80
2018-12-05T07:21:05.543Z,5.90
2018-12-05T07:23:33.155Z,5.80
2018-12-05T07:26:00.747Z,5.70
2018-12-05T07:28:28.315Z,5.90
2018-12-05T07:30:55.899Z,6.00
2018-12-05T07:33:23.495Z,5.80
2018-12-05T07:35:51.059Z,5.90
2018-12-05T07:38:19.629Z,6.00
2018-12-05T07:40:47.575Z,5.90
2018-12-05T07:43:15.168Z,5.80
2018-12-05T07:45:42.738Z,5.80
2018-12-05T07:48:10.333Z,5.90
2018-12-05T07:50:37.895Z,5.90
2018-12-05T07:53:05.487Z,6.00
2018-12-05T07:55:33.186Z,6.10
2018-12-05T07:58:00.776Z,6.20
2018-12-05T08:00:28.351Z,6.20
2018-12-05T08:02:55.958Z,6.10
2018-12-05T08:05:23.539Z,6.10
2018-12-05T08:07:51.157Z,6.00
2018-12-05T08:10:18.727Z,6.10
2018-12-05T08:12:46.326Z,6.10
2018-12-05T08:15:13.958Z,6.20
2018-12-05T08:17:41.528Z,6.20
2018-12-05T08:20:09.238Z,6.30
2018-12-05T08:22:36.802Z,6.30
2018-12-05T08:25:05.544Z,6.50
2018-12-05T08:27:33.113Z,6.50
2018-12-05T08:30:00.716Z,6.50
2018-12-05T08:32:28.316Z,6.50
2018-12-05T08:34:55.922Z,6.50
2018-12-05T08:37:23.524Z,6.60
2018-12-05T08:39:51.240Z,6.60
2018-12-05T08:42:18.803Z,6.60
2018-12-05T08:44:46.405Z,6.70
2018-12-05T08:47:13.979Z,6.70
2018-12-05T08:49:41.583Z,6.70
2018-12-05T08:52:09.159Z,6.70
2018-12-05T08:54:36.760Z,6.70
2018-12-05T08:57:04.338Z,6.80
2018-12-05T08:59:31.938Z,6.90
2018-12-05T09:01:59.542Z,6.90
2018-12-05T09:04:27.111Z,7.00
2018-12-05T09:06:54.703Z,6.90
2018-12-05T09:09:22.278Z,7.00
2018-12-05T09:11:49.871Z,7.00
2018-12-05T09:14:17.437Z,6.90
2018-12-05T09:16:45.033Z,6.80
2018-12-05T09:19:12.600Z,6.90
2018-12-05T09:21:40.198Z,6.90
2018-12-05T09:24:07.767Z,6.90
2018-12-05T09:26:35.351Z,7.00
2018-12-05T09:29:02.915Z,7.00
2018-12-05T09:31:30.506Z,7.00
2018-12-05T09:33:58.072Z,6.90
2018-12-05T09:36:25.691Z,7.10
2018-12-05T09:38:53.253Z,7.20
2018-12-05T09:41:20.839Z,7.40
2018-12-05T09:43:48.439Z,7.30
2018-12-05T09:46:16.012Z,7.30
2018-12-05T09:48:43.607Z,7.30
2018-12-05T09:51:11.185Z,7.40
2018-12-05T09:53:38.982Z,7.30
2018-12-05T09:56:06.548Z,7.30
2018-12-05T09:58:34.137Z,7.30
2018-12-05T10:01:01.708Z,7.10
2018-12-05T10:03:29.312Z,7.20
2018-12-05T10:05:56.876Z,7.30
2018-12-05T10:08:24.462Z,7.40
2018-12-05T10:10:52.098Z,7.40
2018-12-05T10:13:19.687Z,7.50
2018-12-05T10:15:47.247Z,7.50
2018-12-05T10:18:14.837Z,7.60
2018-12-05T10:20:42.396Z,7.60
2018-12-05T10:23:09.980Z,7.80
2018-12-05T10:25:37.535Z,7.60
2018-12-05T10:28:05.123Z,7.80
2018-12-05T10:30:32.712Z,7.70
2018-12-05T10:33:00.271Z,7.80
2018-12-05T10:35:27.869Z,7.80
2018-12-05T10:37:55.428Z,7.90
2018-12-05T10:40:23.113Z,7.90
2018-12-05T10:42:50.687Z,7.90
2018-12-05T10:45:18.283Z,8.00
2018-12-05T10:47:45.978Z,8.10
2018-12-05T10:50:13.687Z,8.00
2018-12-05T10:52:41.243Z,8.10
2018-12-05T10:55:08.839Z,8.10
2018-12-05T10:57:36.399Z,8.10
2018-12-05T11:00:08.152Z,8.10
2018-12-05T11:02:41.664Z,8.10
2018-12-05T11:05:14.923Z,8.30
2018-12-05T11:07:48.216Z,8.10
2018-12-05T11:10:21.391Z,8.00
2018-12-05T11:12:54.799Z,8.10
2018-12-05T11:15:28.258Z,8.00
2018-12-05T11:18:01.587Z,7.90
2018-12-05T11:20:34.777Z,7.80
2018-12-05T11:23:08.100Z,7.90
2018-12-05T11:25:35.925Z,7.80
2018-12-05T11:28:03.635Z,7.60
2018-12-05T11:30:31.327Z,7.70
2018-12-05T11:32:59.235Z,7.80
2018-12-05T11:35:26.802Z,7.90
2018-12-05T11:37:54.403Z,7.80
2018-12-05T11:40:21.958Z,7.80
2018-12-05T11:42:49.544Z,7.80
2018-12-05T11:45:17.130Z,7.80
2018-12-05T11:47:44.723Z,7.80
2018-12-05T11:50:12.307Z,7.80
2018-12-05T11:52:39.893Z,7.70
2018-12-05T11:55:07.470Z,7.70
2018-12-05T11:57:35.067Z,7.70
2018-12-05T12:00:02.751Z,7.60
2018-12-05T12:02:30.347Z,7.50
2018-12-05T12:04:57.912Z,7.70
2018-12-05T12:07:25.481Z,7.70
2018-12-05T12:09:53.079Z,7.70
2018-12-05T12:12:26.315Z,7.80
2018-12-05T12:14:53.908Z,7.70
2018-12-05T12:17:21.475Z,7.80
2018-12-05T12:19:49.071Z,7.80
2018-12-05T12:22:16.652Z,7.90
2018-12-05T12:24:44.248Z,7.90
2018-12-05T12:27:11.815Z,7.90
2018-12-05T12:29:39.403Z,7.90
2018-12-05T12:32:06.975Z,7.90
2018-12-05T12:34:34.580Z,7.90
2018-12-05T12:37:02.143Z,7.90
2018-12-05T12:39:29.846Z,7.80
2018-12-05T12:41:57.408Z,7.60
2018-12-05T12:44:24.993Z,7.60
2018-12-05T12:46:52.555Z,7.60
2018-12-05T12:49:20.144Z,7.50
2018-12-05T12:51:47.844Z,7.60
2018-12-05T12:54:15.418Z,7.60
2018-12-05T12:56:43.009Z,7.60
2018-12-05T12:59:10.575Z,7.60
2018-12-05T13:01:38.283Z,7.60
2018-12-05T13:04:06.046Z,7.70
2018-12-05T13:06:33.760Z,7.60
2018-12-05T13:09:01.326Z,7.70
2018-12-05T13:11:28.911Z,7.60
2018-12-05T13:13:56.474Z,7.60
2018-12-05T13:16:24.063Z,7.60
2018-12-05T13:18:51.631Z,7.60
2018-12-05T13:21:19.223Z,7.40
2018-12-05T13:23:46.928Z,7.40
2018-12-05T13:26:14.512Z,7.30
2018-12-05T13:28:42.149Z,7.50
2018-12-05T13:31:09.747Z,7.50
2018-12-05T13:33:37.339Z,7.60
2018-12-05T13:36:04.903Z,7.60
2018-12-05T13:38:32.487Z,7.40
2018-12-05T13:41:00.060Z,7.50
2018-12-05T13:43:27.648Z,7.40
2018-12-05T13:45:55.207Z,7.40
2018-12-05T13:48:22.800Z,7.50
2018-12-05T13:50:50.488Z,7.50
2018-12-05T13:53:18.079Z,7.40
2018-12-05T13:55:45.651Z,7.40
2018-12-05T13:58:13.247Z,7.50
2018-12-05T14:00:40.825Z,7.50
2018-12-05T14:03:08.436Z,7.50
2018-12-05T14:05:36.007Z,7.50
2018-12-05T14:08:03.595Z,7.50
2018-12-05T14:10:31.159Z,7.40
2018-12-05T14:12:59.171Z,7.50
2018-12-05T14:15:26.771Z,7.40
2018-12-05T14:18:01.165Z,7.20
2018-12-05T14:20:23.955Z,7.00
2018-12-05T14:22:52.237Z,7.20
2018-12-05T14:25:19.827Z,7.00
2018-12-05T14:27:47.387Z,7.10
2018-12-05T14:30:15.064Z,7.10
2018-12-05T14:32:42.691Z,7.10
2018-12-05T14:35:10.279Z,7.10
2018-12-05T14:37:37.856Z,7.00
2018-12-05T14:40:06.063Z,7.10
2018-12-05T14:42:33.643Z,7.10
2018-12-05T14:45:01.235Z,7.00
2018-12-05T14:47:28.803Z,7.00
2018-12-05T14:49:56.390Z,7.00
2018-12-05T14:52:23.956Z,7.00
2018-12-05T14:54:51.555Z,7.00
2018-12-05T14:57:19.147Z,7.00
2018-12-05T14:59:46.720Z,6.90
2018-12-05T15:02:14.410Z,6.80
2018-12-05T15:04:41.999Z,6.80
2018-12-05T15:07:09.591Z,6.70
2018-12-05T15:09:37.878Z,6.80
2018-12-05T15:12:05.475Z,6.90
2018-12-05T15:14:33.044Z,6.70
2018-12-05T15:17:00.639Z,6.80
2018-12-05T15:19:28.209Z,6.80
2018-12-05T15:21:55.794Z,6.70
2018-12-05T15:24:23.361Z,6.60
2018-12-05T15:26:50.964Z,6.60
2018-12-05T15:29:18.526Z,6.50
2018-12-05T15:31:46.140Z,6.50
2018-12-05T15:34:13.711Z,6.50
2018-12-05T15:36:41.304Z,6.60
2018-12-05T15:39:08.903Z,6.50
2018-12-05T15:41:36.487Z,6.50
2018-12-05T15:44:04.095Z,6.50
2018-12-05T15:46:31.662Z,6.50
2018-12-05T15:48:59.251Z,6.60
2018-12-05T15:51:26.817Z,6.50
2018-12-05T15:53:54.480Z,6.50
2018-12-05T15:56:22.142Z,6.50
2018-12-05T15:58:49.735Z,6.40
2018-12-05T16:01:17.295Z,6.60
2018-12-05T16:03:44.899Z,6.70
2018-12-05T16:06:12.467Z,6.60
2018-12-05T16:08:40.071Z,6.50
2018-12-05T16:11:07.660Z,6.50
2018-12-05T16:13:35.264Z,6.50
2018-12-05T16:16:02.827Z,6.50
2018-12-05T16:18:30.484Z,6.50
2018-12-05T16:20:58.074Z,6.50
2018-12-05T16:23:25.641Z,6.40
2018-12-05T16:25:53.231Z,6.50
2018-12-05T16:28:20.795Z,6.50
2018-12-05T16:30:48.385Z,6.40
2018-12-05T16:33:15.952Z,6.50
2018-12-05T16:35:43.545Z,6.50
2018-12-05T16:38:11.136Z,6.50
2018-12-05T16:40:38.749Z,6.50
2018-12-05T16:43:06.324Z,6.50
2018-12-05T16:45:33.933Z,6.40
2018-12-05T16:48:01.511Z,6.50
2018-12-05T16:50:29.105Z,6.40
2018-12-05T16:52:56.700Z,6.40
2018-12-05T16:55:24.293Z,6.30
2018-12-05T16:57:51.888Z,6.30
2018-12-05T17:00:19.452Z,6.40
2018-12-05T17:02:47.043Z,6.20
2018-12-05T17:05:15.226Z,6.40
2018-12-05T17:07:42.819Z,6.40
2018-12-05T17:10:10.386Z,6.30
2018-12-05T17:12:37.976Z,6.40
2018-12-05T17:15:05.675Z,6.40
2018-12-05T17:17:33.268Z,6.30
2018-12-05T17:20:00.832Z,6.30
2018-12-05T17:22:28.435Z,6.10
2018-12-05T17:24:57.032Z,6.20
2018-12-05T17:27:24.612Z,6.20
2018-12-05T17:29:52.211Z,6.20
2018-12-05T17:32:19.779Z,6.20
2018-12-05T17:34:47.379Z,6.20
2018-12-05T17:37:15.036Z,6.30
2018-12-05T17:39:43.256Z,6.20
2018-12-05T17:42:10.820Z,6.30
2018-12-05T17:44:39.293Z,6.20
2018-12-05T17:47:06.863Z,6.10
2018-12-05T17:49:34.455Z,6.10
2018-12-05T17:52:02.029Z,6.10
2018-12-05T17:54:29.628Z,6.10
2018-12-05T17:56:57.200Z,6.10
2018-12-05T17:59:24.791Z,6.10
2018-12-05T18:01:52.360Z,6.00
2018-12-05T18:04:19.960Z,6.10
2018-12-05T18:06:48.033Z,6.20
2018-12-05T18:09:15.628Z,6.00
2018-12-05T18:14:13.483Z,6.00
2018-12-05T18:16:41.094Z,6.10
2018-12-05T18:19:08.664Z,6.00
2018-12-05T18:21:36.260Z,6.20
2018-12-05T18:24:03.873Z,6.20
2018-12-05T18:26:31.473Z,6.20
2018-12-05T18:28:59.041Z,6.20
2018-12-05T18:31:26.887Z,6.20
2018-12-05T18:33:54.467Z,6.00
2018-12-05T18:36:22.067Z,6.10
2018-12-05T18:38:49.634Z,6.20
2018-12-05T18:41:17.240Z,6.00
2018-12-05T18:43:44.864Z,6.10
2018-12-05T18:46:12.456Z,6.10
2018-12-05T18:48:40.026Z,6.10
2018-12-05T18:51:07.631Z,6.10
2018-12-05T18:53:35.684Z,6.20
2018-12-05T18:56:04.468Z,6.20
2018-12-05T18:58:32.159Z,6.30
2018-12-05T19:01:02.470Z,6.30
2018-12-05T19:03:30.068Z,6.30
2018-12-05T19:05:57.649Z,6.20
2018-12-05T19:08:25.431Z,6.20
2018-12-05T19:10:53.021Z,6.20
2018-12-05T19:13:21.518Z,6.20
2018-12-05T19:15:50.949Z,6.20
2018-12-05T19:18:18.885Z,6.20
2018-12-05T19:20:47.023Z,6.10
2018-12-05T19:23:15.016Z,6.10
2018-12-05T19:25:42.815Z,6.00
2018-12-05T19:28:10.442Z,6.00
2018-12-05T19:30:38.027Z,6.10
2018-12-05T19:33:05.631Z,6.20
2018-12-05T19:35:33.209Z,6.20
2018-12-05T19:38:00.810Z,6.20
2018-12-05T19:40:28.385Z,6.30
2018-12-05T19:42:55.988Z,6.20
2018-12-05T19:45:23.671Z,6.20
2018-12-05T19:47:52.180Z,6.00
2018-12-05T19:50:19.781Z,6.10
2018-12-05T19:52:47.463Z,6.10
2018-12-05T19:55:15.128Z,6.00
2018-12-05T19:57:42.712Z,6.00
2018-12-05T20:00:13.586Z,5.90
2018-12-05T20:02:41.155Z,6.00
2018-12-05T20:05:08.770Z,5.80
2018-12-05T20:07:36.332Z,5.80
2018-12-05T20:10:04.463Z,5.80
2018-12-05T20:12:32.040Z,5.70
2018-12-05T20:14:59.630Z,5.80
2018-12-05T20:17:27.197Z,5.80
2018-12-05T20:19:54.794Z,5.90
2018-12-05T20:22:22.480Z,5.90
2018-12-05T20:24:51.529Z,6.10
2018-12-05T20:27:19.252Z,6.00
2018-12-05T20:29:46.821Z,5.90
2018-12-05T20:32:14.416Z,5.90
2018-12-05T20:34:41.991Z,6.00
2018-12-05T20:37:09.879Z,6.00
2018-12-05T20:39:37.568Z,6.10
2018-12-05T20:42:05.276Z,6.00
2018-12-05T20:44:32.839Z,6.00
2018-12-05T20:47:00.435Z,6.10
2018-12-05T20:49:28.378Z,6.10
2018-12-05T20:51:56.156Z,6.20
2018-12-05T20:54:23.723Z,6.20
2018-12-05T20:56:51.320Z,6.10
2018-12-05T20:59:18.895Z,6.00
2018-12-05T21:01:46.731Z,6.10
2018-12-05T21:04:14.300Z,6.10
2018-12-05T21:06:41.916Z,5.90
2018-12-05T21:09:09.625Z,5.90
2018-12-05T21:11:37.223Z,6.00
2018-12-05T21:14:04.923Z,6.00
2018-12-05T21:16:33.616Z,6.00
2018-12-05T21:19:01.235Z,6.00
2018-12-05T21:21:28.812Z,6.00
2018-12-05T21:23:56.403Z,6.00
2018-12-05T21:26:23.967Z,5.70
2018-12-05T21:28:51.560Z,5.80
2018-12-05T21:31:19.127Z,5.60
2018-12-05T21:33:46.724Z,5.60
2018-12-05T21:36:14.547Z,5.80
2018-12-05T21:38:42.139Z,5.90
2018-12-05T21:41:09.708Z,5.90
2018-12-05T21:43:37.301Z,5.80
2018-12-05T21:46:04.866Z,5.90
2018-12-05T21:48:32.682Z,5.90
2018-12-05T21:51:00.863Z,6.00
2018-12-05T21:53:28.512Z,6.00
2018-12-05T21:55:56.105Z,6.00
2018-12-05T21:58:23.671Z,5.80
2018-12-05T22:00:51.287Z,5.80
2018-12-05T22:03:18.852Z,5.90
2018-12-05T22:05:46.463Z,6.00
2018-12-05T22:08:14.043Z,6.00
2018-12-05T22:10:41.731Z,6.00
2018-12-05T22:13:09.305Z,6.00
2018-12-05T22:15:36.899Z,5.80
2018-12-05T22:18:04.467Z,5.80
2018-12-05T22:20:32.060Z,5.90
2018-12-05T22:22:59.624Z,5.90
2018-12-05T22:25:27.219Z,5.90
2018-12-05T22:27:54.793Z,6.10
2018-12-05T22:30:22.403Z,6.10
2018-12-05T22:32:49.979Z,5.90
2018-12-05T22:35:17.575Z,5.90
2018-12-05T22:37:45.143Z,5.90
2018-12-05T22:40:12.743Z,5.80
2018-12-05T22:42:40.340Z,5.80
2018-12-05T22:45:07.935Z,5.90
2018-12-05T22:47:35.565Z,6.10
2018-12-05T22:50:03.361Z,6.00
2018-12-05T22:52:30.982Z,6.00
2018-12-05T22:54:58.546Z,6.00
2018-12-05T22:57:26.140Z,6.10
2018-12-05T22:59:53.824Z,6.00
2018-12-05T23:02:21.416Z,5.90
2018-12-05T23:04:48.982Z,5.80
2018-12-05T23:07:16.577Z,5.80
2018-12-05T23:09:44.143Z,5.80
2018-12-05T23:12:11.726Z,5.70
2018-12-05T23:14:39.303Z,5.80
2018-12-05T23:17:06.903Z,5.80
2018-12-05T23:19:34.479Z,5.90
2018-12-05T23:22:02.071Z,5.90
2018-12-05T23:24:29.669Z,5.70
2018-12-05T23:26:57.232Z,5.60
2018-12-05T23:29:24.836Z,5.70
2018-12-05T23:31:52.408Z,5.60
2018-12-05T23:34:20.000Z,5.80
2018-12-05T23:36:47.563Z,5.80
2018-12-05T23:39:15.163Z,5.90
2018-12-05T23:41:42.731Z,5.80
2018-12-05T23:44:10.406Z,5.80
2018-12-05T23:46:37.980Z,5.90
2018-12-05T23:49:05.566Z,5.80
2018-12-05T23:51:33.130Z,5.80
2018-12-05T23:54:00.727Z,6.00
2018-12-05T23:56:28.314Z,5.70
2018-12-05T23:58:55.970Z,5.80
